Charlottesville Albemarle Airport
KCHO : now visible

Airfield :











YOU CAN JOIN US ON...

 
LOGIN :

Register | Disclaimer

   EN    FR    IT 

 









Legend :    VFR   Marginal VFR   IFR   Intensive IFR   Very Intensive IFR
Visi :
Ceiling :
>= 8 km
>= 3000ft
5 to 8 km
1000 to 3000 ft
1500m to 5 km
500 to 1000 ft
800 to 1500m
200 to 500 ft
< 800m
< 200 ft
Symbols :   Thunderstorms  Fog  Heavy snow  Heavy precipitations  Wind > 20 kt






- Airport Elevation : 639 ft
- IATA code : CHO


KCHO - Charlottesville Albemarle

CURRENT METAR :
  • 190253Z 00000KT 5SM BR OVC006 07/05 A2976 RMK AO2 SLP077 60008 T00720050 53003

EXPIRED METARs :
  • 190153Z 35003KT 8SM OVC006 07/05 A2975 RMK AO2 RAE48 SLP075 P0002 T00720050
  • 190129Z 32003KT 6SM -RA BKN007 OVC050 07/04 A2975 RMK AO2 P0002 T00720044
  • 190111Z 06003KT 6SM -RA BR FEW007 BKN050 OVC065 07/05 A2974 RMK AO2 P0001 T00720050
  • 190053Z 06005KT 8SM -RA SCT044 OVC060 07/05 A2973 RMK AO2 SLP069 P0006 T00720050

TAF KCHO
Valid from the 19 at 02:00 until the 20 at 00:00 UTC


190209Z 1902/1924 VRB03KT 6SM BR OVC006
FM190600 00000KT 5SM BR BKN020
FM191400 VRB03KT P6SM BKN050



MET'MAP, your aeronautical weather chart ! - Copyright ORBIFLY December 2007 - Disclaimer

ORBIFLY MET'MAP TEAM :

Programming & Development : Alexandra Zaïnal
Concept & Development : Baudouin d'Aumeries
Co-Development & Prog : Marc-Olivier Méhu
Technical & hardware support : Manuel Goepfert

Contact : metmap@orbifly.com




SOURCES & CREDITS :

   NOAA       Earth
Advisory